Time;durP1;ratioP1;P1;durP2;ratioP2;P2;SDS_P1;SDS_P2;PMS_P1;PMS_P2;Temp;Humidity;BMP_temperature;BMP_pressure;BME280_temperature;BME280_humidity;BME280_pressure;Samples;Min_cycle;Max_cycle;Signal;HPM_P1;HPM_P2
2022/10/21 00:00:51;;;;;;;0.13;0.13;;;14.80;99.90;;;;;;5000973;28;20353;-69
2022/10/21 00:03:18;;;;;;;0.00;0.00;;;14.80;99.90;;;;;;5014980;28;20179;-70
2022/10/21 00:05:44;;;;;;;0.15;0.15;;;14.70;99.90;;;;;;5013236;28;20171;-69
2022/10/21 00:08:09;;;;;;;0.28;0.28;;;14.70;99.90;;;;;;5001513;28;20214;-68
2022/10/21 00:10:35;;;;;;;0.52;0.52;;;14.70;99.90;;;;;;5010932;28;20194;-69
2022/10/21 00:13:01;;;;;;;0.25;0.25;;;14.70;99.90;;;;;;5011472;28;20261;-69
2022/10/21 00:15:26;;;;;;;0.00;0.00;;;14.70;99.90;;;;;;5004816;28;20241;-69
2022/10/21 00:17:52;;;;;;;0.00;0.00;;;14.70;99.90;;;;;;4998043;28;20195;-70
2022/10/21 00:20:18;;;;;;;0.10;0.10;;;14.60;99.90;;;;;;5003502;28;20677;-70
2022/10/21 00:22:44;;;;;;;0.08;0.08;;;14.60;99.90;;;;;;5005300;28;20183;-69
2022/10/21 00:25:09;;;;;;;0.00;0.00;;;14.60;99.90;;;;;;5007219;28;20195;-69
2022/10/21 00:27:35;;;;;;;0.22;0.20;;;14.60;99.90;;;;;;4984694;28;20183;-69
2022/10/21 00:30:01;;;;;;;0.03;0.03;;;14.50;99.90;;;;;;5005073;28;20322;-69
2022/10/21 00:32:26;;;;;;;0.20;0.20;;;14.50;99.90;;;;;;5002228;28;20200;-69
2022/10/21 00:34:52;;;;;;;0.05;0.05;;;14.50;99.90;;;;;;5009238;28;20210;-69
2022/10/21 00:37:17;;;;;;;0.00;0.00;;;14.50;99.90;;;;;;5013628;28;20213;-69
2022/10/21 00:39:44;;;;;;;1.45;0.20;;;14.40;99.90;;;;;;5009424;28;20272;-69
2022/10/21 00:42:20;;;;;;;0.00;0.00;;;14.40;99.90;;;;;;5010344;28;20215;-69
2022/10/21 00:45:04;;;;;;;0.10;0.10;;;14.40;99.90;;;;;;5001353;28;20183;-69
2022/10/21 00:47:30;;;;;;;0.10;0.10;;;14.30;99.90;;;;;;5005608;28;20589;-69
2022/10/21 00:50:02;;;;;;;0.00;0.00;;;14.30;99.90;;;;;;4999417;28;20200;-70
2022/10/21 00:52:32;;;;;;;0.73;0.20;;;14.20;99.90;;;;;;5007300;28;20596;-70
2022/10/21 00:55:01;;;;;;;0.13;0.13;;;14.30;99.90;;;;;;5012722;28;20179;-69
2022/10/21 00:57:27;;;;;;;0.10;0.10;;;14.30;99.90;;;;;;5013796;28;20688;-69
2022/10/21 00:59:58;;;;;;;0.10;0.10;;;14.30;99.90;;;;;;4996226;28;20251;-69
2022/10/21 01:02:24;;;;;;;0.38;0.38;;;14.30;99.90;;;;;;5000677;28;20265;-69
2022/10/21 01:04:52;;;;;;;0.00;0.00;;;14.30;99.90;;;;;;4997197;28;20719;-69
2022/10/21 01:07:18;;;;;;;0.00;0.00;;;14.30;99.90;;;;;;4996586;28;20186;-69
2022/10/21 01:09:44;;;;;;;0.00;0.00;;;14.30;99.90;;;;;;5003999;28;20599;-69
2022/10/21 01:12:29;;;;;;;0.17;0.17;;;14.20;99.90;;;;;;5006976;28;20267;-69
2022/10/21 01:15:06;;;;;;;0.10;0.10;;;14.20;99.90;;;;;;5005623;28;20282;-70
2022/10/21 01:17:58;;;;;;;0.08;0.00;;;14.10;99.90;;;;;;4996561;28;20185;-69
2022/10/21 01:20:33;;;;;;;0.00;0.00;;;14.10;99.90;;;;;;5003974;28;20254;-70
2022/10/21 01:23:38;;;;;;;0.00;0.00;;;14.10;99.90;;;;;;4996603;28;20185;-70
2022/10/21 01:26:32;;;;;;;0.17;0.17;;;14.10;99.90;;;;;;4994059;28;20758;-70
2022/10/21 01:29:13;;;;;;;0.03;0.03;;;14.10;99.90;;;;;;4999294;28;20357;-70
2022/10/21 01:32:10;;;;;;;0.00;0.00;;;14.10;99.90;;;;;;5008540;28;20512;-70
2022/10/21 01:35:07;;;;;;;0.63;0.63;;;14.00;99.90;;;;;;4994623;28;20223;-70
2022/10/21 01:37:50;;;;;;;0.00;0.00;;;14.00;99.90;;;;;;4996432;28;20184;-69
2022/10/21 01:40:23;;;;;;;0.10;0.10;;;14.00;99.90;;;;;;5000935;28;20229;-68
2022/10/21 01:42:55;;;;;;;0.15;0.08;;;14.00;99.90;;;;;;4997167;28;20191;-69
2022/10/21 01:45:35;;;;;;;0.85;0.68;;;14.00;99.90;;;;;;5012332;28;20182;-68
2022/10/21 01:48:07;;;;;;;3.72;1.50;;;14.00;99.90;;;;;;4996031;28;20191;-69
2022/10/21 01:50:43;;;;;;;0.93;0.93;;;14.00;99.90;;;;;;5004722;28;20210;-69
2022/10/21 01:53:11;;;;;;;2.30;0.45;;;14.00;99.90;;;;;;5010479;28;20273;-69
2022/10/21 01:55:38;;;;;;;1.35;1.30;;;14.00;99.90;;;;;;5004251;28;20178;-69
2022/10/21 01:58:11;;;;;;;1.65;1.50;;;14.00;99.90;;;;;;5004565;28;20527;-69
2022/10/21 02:00:39;;;;;;;2.85;0.98;;;13.90;99.90;;;;;;5011617;28;20249;-69
2022/10/21 02:03:09;;;;;;;0.65;0.65;;;13.90;99.90;;;;;;5012142;28;20185;-68
2022/10/21 02:05:35;;;;;;;0.28;0.28;;;13.90;99.90;;;;;;5003009;28;20244;-68
2022/10/21 02:08:02;;;;;;;0.17;0.17;;;13.90;99.90;;;;;;5007733;28;20225;-68
2022/10/21 02:10:33;;;;;;;0.32;0.30;;;13.90;99.90;;;;;;5003217;28;20274;-68
2022/10/21 02:13:02;;;;;;;0.77;0.60;;;13.80;99.90;;;;;;5002777;28;20685;-69
2022/10/21 02:15:29;;;;;;;0.55;0.43;;;13.80;99.90;;;;;;5003806;28;20545;-69
2022/10/21 02:18:03;;;;;;;0.43;0.35;;;13.80;99.90;;;;;;5013019;28;20171;-69
2022/10/21 02:20:32;;;;;;;1.10;0.90;;;13.80;99.90;;;;;;4997437;28;20233;-68
2022/10/21 02:22:59;;;;;;;5.15;0.40;;;13.80;99.90;;;;;;4999664;28;20181;-69
2022/10/21 02:25:28;;;;;;;0.65;0.65;;;13.90;99.90;;;;;;5009541;28;20242;-69
2022/10/21 02:27:54;;;;;;;0.35;0.35;;;13.90;99.90;;;;;;5009471;28;20657;-69
2022/10/21 02:30:20;;;;;;;0.05;0.05;;;13.90;99.90;;;;;;5005280;28;20233;-69
2022/10/21 02:33:07;;;;;;;0.10;0.10;;;13.90;99.90;;;;;;4999698;28;20202;-68
2022/10/21 02:35:56;;;;;;;0.15;0.15;;;13.90;99.90;;;;;;5006556;28;20689;-69
2022/10/21 02:38:35;;;;;;;0.00;0.00;;;13.90;99.90;;;;;;5003437;28;20656;-69
2022/10/21 02:41:09;;;;;;;0.10;0.10;;;14.00;99.90;;;;;;4995263;28;20202;-68
2022/10/21 02:43:49;;;;;;;0.00;0.00;;;14.00;99.90;;;;;;5003924;28;20269;-68
2022/10/21 02:46:15;;;;;;;0.38;0.38;;;14.00;99.90;;;;;;5006348;28;20209;-69
2022/10/21 02:48:44;;;;;;;0.75;0.57;;;14.00;99.90;;;;;;5012317;28;20638;-69
2022/10/21 02:51:10;;;;;;;0.10;0.10;;;14.00;99.90;;;;;;4998085;28;20218;-69
2022/10/21 02:53:36;;;;;;;0.20;0.20;;;13.90;99.90;;;;;;4999995;28;20614;-69
2022/10/21 02:56:02;;;;;;;0.15;0.15;;;13.90;99.90;;;;;;5012122;28;20273;-69
2022/10/21 02:58:28;;;;;;;1.98;0.57;;;13.90;99.90;;;;;;5003965;28;20202;-69
2022/10/21 03:00:53;;;;;;;0.00;0.00;;;13.90;99.90;;;;;;4993644;28;20261;-69
2022/10/21 03:03:19;;;;;;;0.20;0.20;;;13.90;99.90;;;;;;4993460;28;20179;-69
2022/10/21 03:05:45;;;;;;;0.43;0.43;;;13.90;99.90;;;;;;4998308;28;20541;-69
2022/10/21 03:08:11;;;;;;;0.28;0.28;;;14.00;99.90;;;;;;5010709;28;20182;-68
2022/10/21 03:10:36;;;;;;;0.10;0.10;;;14.00;99.90;;;;;;5011690;28;20256;-69
2022/10/21 03:13:02;;;;;;;0.00;0.00;;;14.00;99.90;;;;;;5008741;28;20655;-69
2022/10/21 03:15:28;;;;;;;0.65;0.65;;;14.10;99.90;;;;;;4992466;28;20175;-69
2022/10/21 03:17:53;;;;;;;0.00;0.00;;;14.10;99.90;;;;;;5001766;28;20202;-69
2022/10/21 03:20:19;;;;;;;0.10;0.10;;;14.10;99.90;;;;;;5011848;28;20222;-68
2022/10/21 03:22:44;;;;;;;0.10;0.10;;;14.10;99.90;;;;;;4999070;28;20646;-69
2022/10/21 03:25:11;;;;;;;0.08;0.08;;;14.10;99.90;;;;;;4992369;28;20677;-69
2022/10/21 03:27:36;;;;;;;0.00;0.00;;;14.10;99.90;;;;;;5005408;28;20659;-70
2022/10/21 03:30:04;;;;;;;0.50;0.50;;;14.20;99.90;;;;;;4992033;28;20306;-69
2022/10/21 03:32:29;;;;;;;0.00;0.00;;;14.20;99.90;;;;;;4994252;28;20186;-69
2022/10/21 03:34:55;;;;;;;0.00;0.00;;;14.10;99.90;;;;;;4999657;28;20184;-70
2022/10/21 03:37:21;;;;;;;0.05;0.05;;;14.20;99.90;;;;;;4999720;28;20188;-69
2022/10/21 03:39:46;;;;;;;0.00;0.00;;;14.10;99.90;;;;;;5009030;28;20228;-70
2022/10/21 03:42:12;;;;;;;0.20;0.20;;;14.10;99.90;;;;;;5010109;28;20643;-69
2022/10/21 03:44:37;;;;;;;0.13;0.13;;;14.10;99.90;;;;;;4996915;28;20257;-70
2022/10/21 03:47:03;;;;;;;0.10;0.00;;;14.10;99.90;;;;;;4995565;28;20192;-69
2022/10/21 03:49:28;;;;;;;0.25;0.25;;;14.10;99.90;;;;;;5005017;28;20222;-68
2022/10/21 03:51:54;;;;;;;0.00;0.00;;;14.10;99.90;;;;;;5002619;28;20186;-69
2022/10/21 03:54:20;;;;;;;0.20;0.20;;;14.10;99.90;;;;;;5006509;28;20265;-68
2022/10/21 03:56:45;;;;;;;0.00;0.00;;;14.10;99.90;;;;;;5015295;28;20253;-69
2022/10/21 03:59:11;;;;;;;0.10;0.10;;;14.10;99.90;;;;;;5003363;28;20670;-69
2022/10/21 04:01:37;;;;;;;0.00;0.00;;;14.10;99.90;;;;;;4996874;28;20191;-69
2022/10/21 04:04:02;;;;;;;0.00;0.00;;;14.10;99.90;;;;;;4996367;28;20230;-69
2022/10/21 04:06:28;;;;;;;0.32;0.20;;;14.10;99.90;;;;;;4999595;28;20274;-69
2022/10/21 04:08:54;;;;;;;0.32;0.32;;;14.10;99.90;;;;;;5003618;28;20321;-69
2022/10/21 04:11:19;;;;;;;0.00;0.00;;;14.10;99.90;;;;;;4998556;28;20175;-68
2022/10/21 04:13:45;;;;;;;0.00;0.00;;;14.10;99.90;;;;;;5002518;28;20190;-66
2022/10/21 04:16:14;;;;;;;0.10;0.10;;;14.10;99.90;;;;;;4995332;28;20190;-69
2022/10/21 04:18:40;;;;;;;0.20;0.20;;;14.10;99.90;;;;;;4996302;28;20517;-65
2022/10/21 04:21:05;;;;;;;0.08;0.08;;;14.20;99.90;;;;;;5002111;28;20305;-66
2022/10/21 04:23:31;;;;;;;0.10;0.10;;;14.20;99.90;;;;;;4995924;28;20539;-73
2022/10/21 04:25:56;;;;;;;0.00;0.00;;;14.10;99.90;;;;;;5003075;28;20174;-72
2022/10/21 04:28:22;;;;;;;0.00;0.00;;;14.10;99.90;;;;;;5000646;28;20262;-72
2022/10/21 04:30:50;;;;;;;0.00;0.00;;;14.20;99.90;;;;;;5014200;28;20233;-73
2022/10/21 04:33:16;;;;;;;0.38;0.38;;;14.20;99.90;;;;;;4996089;28;20266;-72
2022/10/21 04:35:42;;;;;;;0.00;0.00;;;14.20;99.90;;;;;;5014397;28;20261;-72
2022/10/21 04:38:07;;;;;;;0.00;0.00;;;14.10;99.90;;;;;;4997153;28;20234;-73
2022/10/21 04:40:33;;;;;;;0.00;0.00;;;14.20;99.90;;;;;;5012387;28;20645;-70
2022/10/21 04:42:58;;;;;;;0.17;0.17;;;14.20;99.90;;;;;;4998923;28;20191;-67
2022/10/21 04:45:24;;;;;;;0.20;0.20;;;14.20;99.90;;;;;;4995338;28;20190;-69
2022/10/21 04:47:49;;;;;;;0.00;0.00;;;14.20;99.90;;;;;;4994852;28;20186;-69
2022/10/21 04:50:15;;;;;;;0.00;0.00;;;14.30;99.90;;;;;;5008847;28;20218;-70
2022/10/21 04:52:40;;;;;;;0.08;0.08;;;14.40;99.90;;;;;;5012723;28;20175;-71
2022/10/21 04:55:07;;;;;;;0.20;0.20;;;14.40;99.90;;;;;;5008299;28;20194;-69
2022/10/21 04:57:32;;;;;;;0.03;0.03;;;14.50;99.90;;;;;;5015612;28;20555;-70
2022/10/21 04:59:58;;;;;;;0.10;0.10;;;14.50;99.90;;;;;;5004920;28;20211;-70
2022/10/21 05:02:23;;;;;;;0.00;0.00;;;14.50;99.90;;;;;;5014086;28;20262;-69
2022/10/21 05:04:49;;;;;;;0.00;0.00;;;14.50;99.90;;;;;;4998105;28;20575;-69
2022/10/21 05:07:14;;;;;;;0.00;0.00;;;14.50;99.90;;;;;;5002530;28;20183;-69
2022/10/21 05:09:40;;;;;;;0.05;0.05;;;14.50;99.90;;;;;;5011446;28;20893;-69
2022/10/21 05:12:05;;;;;;;0.00;0.00;;;14.50;99.90;;;;;;5013340;28;20602;-67
2022/10/21 05:14:31;;;;;;;0.10;0.10;;;14.50;99.90;;;;;;5002711;28;20183;-66
2022/10/21 05:16:57;;;;;;;0.25;0.25;;;14.50;99.90;;;;;;5012125;28;20185;-67
2022/10/21 05:19:22;;;;;;;0.28;0.28;;;14.50;99.90;;;;;;5013179;28;20260;-66
2022/10/21 05:21:48;;;;;;;0.00;0.00;;;14.50;99.90;;;;;;5013432;28;20202;-67
2022/10/21 05:24:14;;;;;;;0.00;0.00;;;14.60;99.90;;;;;;5013491;28;20433;-67
2022/10/21 05:26:40;;;;;;;0.10;0.10;;;14.50;99.90;;;;;;5013602;28;20182;-67
2022/10/21 05:29:06;;;;;;;1.30;0.38;;;14.50;99.90;;;;;;5012936;28;20245;-67
2022/10/21 05:31:31;;;;;;;0.10;0.10;;;14.60;99.90;;;;;;5013252;28;20265;-67
2022/10/21 05:33:57;;;;;;;0.03;0.03;;;14.60;99.90;;;;;;5013117;28;20657;-67
2022/10/21 05:36:22;;;;;;;0.08;0.08;;;14.60;99.90;;;;;;5013228;28;20642;-67
2022/10/21 05:38:48;;;;;;;0.00;0.00;;;14.60;99.90;;;;;;5013394;28;20190;-67
2022/10/21 05:41:15;;;;;;;0.00;0.00;;;14.60;99.90;;;;;;5013274;28;20190;-66
2022/10/21 05:43:41;;;;;;;0.00;0.00;;;14.60;99.90;;;;;;5013083;28;20530;-67
2022/10/21 05:46:07;;;;;;;0.10;0.10;;;14.60;99.90;;;;;;5013165;28;20182;-66
2022/10/21 05:48:33;;;;;;;0.20;0.20;;;14.70;99.90;;;;;;5012438;28;20190;-66
2022/10/21 05:50:59;;;;;;;0.00;0.00;;;14.70;99.90;;;;;;5009028;28;20179;-67
2022/10/21 05:53:24;;;;;;;0.00;0.00;;;14.70;99.90;;;;;;4993421;28;20640;-67
2022/10/21 05:56:01;;;;;;;0.10;0.05;;;14.70;99.90;;;;;;4994243;28;20176;-67
2022/10/21 05:58:28;;;;;;;0.10;0.10;;;14.70;99.90;;;;;;4993352;28;20187;-67
2022/10/21 06:00:54;;;;;;;0.15;0.15;;;14.70;99.90;;;;;;5001195;28;20301;-67
2022/10/21 06:03:21;;;;;;;0.20;0.20;;;14.70;99.90;;;;;;5012765;28;20179;-66
2022/10/21 06:05:47;;;;;;;0.00;0.00;;;14.70;99.90;;;;;;5001388;28;20215;-67
2022/10/21 06:08:13;;;;;;;0.30;0.30;;;14.70;99.90;;;;;;5000052;28;20186;-66
2022/10/21 06:10:38;;;;;;;0.10;0.10;;;14.80;99.90;;;;;;5003670;28;20187;-66
2022/10/21 06:13:04;;;;;;;0.25;0.25;;;14.80;99.90;;;;;;4993244;28;20658;-66
2022/10/21 06:15:29;;;;;;;0.00;0.00;;;14.90;99.90;;;;;;5001368;28;20277;-66
2022/10/21 06:17:55;;;;;;;0.00;0.00;;;15.00;99.90;;;;;;5012686;28;20213;-66
2022/10/21 06:20:20;;;;;;;0.00;0.00;;;15.00;99.90;;;;;;4998905;28;20226;-66
2022/10/21 06:22:46;;;;;;;0.47;0.47;;;15.10;99.90;;;;;;4999259;28;20175;-66
2022/10/21 06:25:11;;;;;;;0.00;0.00;;;15.10;99.90;;;;;;4999865;28;20191;-66
2022/10/21 06:27:37;;;;;;;0.17;0.10;;;15.20;99.90;;;;;;5012052;28;20171;-66
2022/10/21 06:30:03;;;;;;;0.00;0.00;;;15.20;99.90;;;;;;5012214;28;20222;-66
2022/10/21 06:32:29;;;;;;;0.00;0.00;;;15.20;99.90;;;;;;5012362;28;20178;-66
2022/10/21 06:34:54;;;;;;;0.00;0.00;;;15.20;99.90;;;;;;5012391;28;20175;-66
2022/10/21 06:37:20;;;;;;;0.00;0.00;;;15.20;99.90;;;;;;5012316;28;20585;-67
2022/10/21 06:39:45;;;;;;;0.00;0.00;;;15.20;99.90;;;;;;5011660;28;20210;-66
2022/10/21 06:42:12;;;;;;;0.00;0.00;;;15.20;99.90;;;;;;4992847;28;20175;-67
2022/10/21 06:44:38;;;;;;;0.00;0.00;;;15.30;99.90;;;;;;4993676;28;20187;-66
2022/10/21 06:47:03;;;;;;;0.00;0.00;;;15.30;99.90;;;;;;5005757;28;20182;-66
2022/10/21 06:49:29;;;;;;;0.40;0.40;;;15.30;99.90;;;;;;5011076;28;20175;-66
2022/10/21 06:51:54;;;;;;;0.08;0.08;;;15.40;99.90;;;;;;5011517;28;20178;-66
2022/10/21 06:54:20;;;;;;;0.28;0.28;;;15.40;99.90;;;;;;5010437;28;20611;-66
2022/10/21 06:56:45;;;;;;;0.00;0.00;;;15.40;99.90;;;;;;5012099;28;20229;-66
2022/10/21 06:59:11;;;;;;;0.00;0.00;;;15.40;99.90;;;;;;5008201;28;20207;-65
2022/10/21 07:01:36;;;;;;;0.00;0.00;;;15.40;99.90;;;;;;5008970;28;20206;-66
2022/10/21 07:04:04;;;;;;;0.10;0.10;;;15.40;99.90;;;;;;4992482;28;20262;-65
2022/10/21 07:06:30;;;;;;;0.00;0.00;;;15.40;99.90;;;;;;4992748;28;20191;-66
2022/10/21 07:08:57;;;;;;;0.60;0.60;;;15.40;99.90;;;;;;5008940;28;20530;-65
2022/10/21 07:11:23;;;;;;;0.00;0.00;;;15.40;99.90;;;;;;5013667;28;20653;-64
2022/10/21 07:13:48;;;;;;;0.00;0.00;;;15.40;99.90;;;;;;5016162;28;20422;-65
2022/10/21 07:16:26;;;;;;;0.00;0.00;;;15.40;99.90;;;;;;5006428;28;20270;-64
2022/10/21 07:18:52;;;;;;;0.00;0.00;;;15.40;99.90;;;;;;4996274;28;20770;-65
2022/10/21 07:21:19;;;;;;;0.10;0.10;;;15.50;99.90;;;;;;4997441;28;20583;-64
2022/10/21 07:23:46;;;;;;;0.00;0.00;;;15.50;99.90;;;;;;4997877;28;20605;-64
2022/10/21 07:26:11;;;;;;;0.00;0.00;;;15.60;99.90;;;;;;4996003;28;20187;-64
2022/10/21 07:28:38;;;;;;;0.10;0.10;;;15.60;99.90;;;;;;5003550;28;20776;-65
2022/10/21 07:31:04;;;;;;;0.00;0.00;;;15.60;99.90;;;;;;5012429;28;20225;-65
2022/10/21 07:33:30;;;;;;;0.00;0.00;;;15.60;99.90;;;;;;5008626;28;20206;-64
2022/10/21 07:36:08;;;;;;;0.00;0.00;;;15.60;99.90;;;;;;5009785;28;20241;-64
2022/10/21 07:38:34;;;;;;;0.00;0.00;;;15.60;99.90;;;;;;4996080;28;20552;-65
2022/10/21 07:41:00;;;;;;;0.05;0.05;;;15.70;99.90;;;;;;4997168;28;20211;-64
2022/10/21 07:43:25;;;;;;;0.00;0.00;;;15.70;99.90;;;;;;4995779;28;20179;-64
2022/10/21 07:45:51;;;;;;;0.00;0.00;;;15.70;99.90;;;;;;4998097;28;20183;-65
2022/10/21 07:48:17;;;;;;;0.00;0.00;;;15.70;99.90;;;;;;4995832;28;20532;-64
2022/10/21 07:50:43;;;;;;;0.00;0.00;;;15.70;99.90;;;;;;5009856;28;20273;-64
2022/10/21 07:53:09;;;;;;;0.00;0.00;;;15.70;99.90;;;;;;5015458;28;20206;-64
2022/10/21 07:55:34;;;;;;;0.00;0.00;;;15.80;99.90;;;;;;5015109;28;20197;-64
2022/10/21 07:58:00;;;;;;;0.00;0.00;;;15.80;99.90;;;;;;5015273;28;20250;-64
2022/10/21 08:00:25;;;;;;;0.10;0.10;;;15.80;99.90;;;;;;5013002;28;20417;-64
2022/10/21 08:02:55;;;;;;;0.00;0.00;;;15.90;99.90;;;;;;5015226;28;20175;-64
2022/10/21 08:05:21;;;;;;;0.20;0.10;;;15.90;99.90;;;;;;5013401;28;20187;-64
2022/10/21 08:07:47;;;;;;;0.08;0.08;;;15.90;99.90;;;;;;5015122;28;20202;-64
2022/10/21 08:10:12;;;;;;;0.10;0.10;;;15.90;99.90;;;;;;5014286;28;20634;-64
2022/10/21 08:12:38;;;;;;;0.00;0.00;;;15.90;99.90;;;;;;5015027;28;20178;-65
2022/10/21 08:15:04;;;;;;;0.10;0.10;;;16.00;99.90;;;;;;5011628;28;20642;-64
2022/10/21 08:17:29;;;;;;;0.00;0.00;;;16.00;99.90;;;;;;5014943;28;20228;-65
2022/10/21 08:19:55;;;;;;;0.00;0.00;;;16.00;99.90;;;;;;5011223;28;20245;-64
2022/10/21 08:22:21;;;;;;;0.13;0.13;;;16.00;99.90;;;;;;5001649;28;20215;-64
2022/10/21 08:24:47;;;;;;;0.00;0.00;;;16.00;99.90;;;;;;4995231;28;20246;-64
2022/10/21 08:27:12;;;;;;;0.00;0.00;;;15.90;99.90;;;;;;5006020;28;20191;-64
2022/10/21 08:29:38;;;;;;;0.00;0.00;;;15.90;99.90;;;;;;4998944;28;20223;-65
2022/10/21 08:32:04;;;;;;;0.03;0.03;;;15.90;99.90;;;;;;4993796;28;20198;-65
2022/10/21 08:34:29;;;;;;;0.10;0.10;;;15.90;99.90;;;;;;5003010;28;20270;-65
2022/10/21 08:36:55;;;;;;;0.00;0.00;;;15.90;99.90;;;;;;4995073;28;20182;-64
2022/10/21 08:39:23;;;;;;;0.00;0.00;;;15.80;99.90;;;;;;4995382;28;20245;-64
2022/10/21 08:42:03;;;;;;;0.00;0.00;;;15.80;99.90;;;;;;5014657;28;20221;-65
2022/10/21 08:44:33;;;;;;;0.22;0.22;;;15.90;99.90;;;;;;5010716;28;20175;-64
2022/10/21 08:47:13;;;;;;;0.10;0.03;;;15.80;99.90;;;;;;4995416;28;20186;-64
2022/10/21 08:49:42;;;;;;;0.00;0.00;;;15.80;99.90;;;;;;4995873;28;20602;-65
2022/10/21 08:52:15;;;;;;;0.05;0.05;;;15.80;99.90;;;;;;4994684;28;20211;-64
2022/10/21 08:54:46;;;;;;;0.00;0.00;;;15.80;99.90;;;;;;4998197;28;20704;-65
2022/10/21 08:57:12;;;;;;;0.00;0.00;;;15.80;99.90;;;;;;5014078;28;20693;-65
2022/10/21 08:59:41;;;;;;;0.10;0.10;;;15.70;99.90;;;;;;5012290;28;20203;-64
2022/10/21 09:02:33;;;;;;;0.00;0.00;;;15.70;99.90;;;;;;5014130;28;20171;-63
2022/10/21 09:05:01;;;;;;;0.10;0.10;;;15.70;99.90;;;;;;5001326;28;20178;-65
2022/10/21 09:07:46;;;;;;;0.08;0.08;;;15.70;99.90;;;;;;5013911;28;20179;-65
2022/10/21 09:10:44;;;;;;;0.00;0.00;;;15.70;99.90;;;;;;4995817;28;20607;-65
2022/10/21 09:13:24;;;;;;;0.00;0.00;;;15.70;99.90;;;;;;4984210;28;20594;-64
2022/10/21 09:16:26;;;;;;;0.00;0.00;;;15.70;99.90;;;;;;4995505;28;20206;-65
2022/10/21 09:19:10;;;;;;;0.00;0.00;;;15.70;99.90;;;;;;4995220;28;20724;-65
2022/10/21 09:21:47;;;;;;;0.00;0.00;;;15.70;99.90;;;;;;5001907;28;20223;-64
2022/10/21 09:24:34;;;;;;;0.00;0.00;;;15.70;99.90;;;;;;5013678;28;20182;-65
2022/10/21 09:27:01;;;;;;;0.10;0.10;;;15.70;99.90;;;;;;5011837;28;20539;-65
2022/10/21 09:29:35;;;;;;;0.08;0.05;;;15.70;99.90;;;;;;4998762;28;20758;-64
2022/10/21 09:32:39;;;;;;;0.10;0.10;;;15.80;99.90;;;;;;4993710;28;20580;-64
2022/10/21 09:35:14;;;;;;;0.10;0.10;;;15.70;99.90;;;;;;5004900;28;20199;-65
2022/10/21 09:38:14;;;;;;;0.08;0.08;;;15.70;99.90;;;;;;5006670;28;20185;-64
2022/10/21 09:40:40;;;;;;;0.38;0.20;;;15.70;99.90;;;;;;5008445;28;20678;-65
2022/10/21 09:43:15;;;;;;;0.20;0.20;;;15.70;99.90;;;;;;5013339;28;20190;-65
2022/10/21 09:45:43;;;;;;;0.00;0.00;;;15.80;99.90;;;;;;5007238;28;20171;-65
2022/10/21 09:48:18;;;;;;;0.00;0.00;;;15.80;99.90;;;;;;4993601;28;20211;-64
2022/10/21 09:50:57;;;;;;;0.08;0.08;;;15.90;99.90;;;;;;5006082;28;20202;-65
2022/10/21 09:53:31;;;;;;;0.00;0.00;;;15.90;99.90;;;;;;5011428;28;20244;-64
2022/10/21 09:56:12;;;;;;;0.00;0.00;;;15.90;99.90;;;;;;5012430;28;20573;-65
2022/10/21 09:58:37;;;;;;;0.00;0.00;;;16.00;99.90;;;;;;5000278;28;20195;-64
2022/10/21 10:01:04;;;;;;;0.00;0.00;;;16.00;99.90;;;;;;5004408;28;20594;-65
2022/10/21 10:03:36;;;;;;;0.00;0.00;;;16.10;99.90;;;;;;5012994;28;20171;-65
2022/10/21 10:06:03;;;;;;;0.00;0.00;;;16.10;99.90;;;;;;5003342;28;20205;-65
2022/10/21 10:08:47;;;;;;;0.00;0.00;;;16.20;99.90;;;;;;5002367;28;20698;-65
2022/10/21 10:11:16;;;;;;;0.00;0.00;;;16.30;99.90;;;;;;5002186;28;20175;-65
2022/10/21 10:13:49;;;;;;;0.00;0.00;;;16.30;99.90;;;;;;4993289;28;20620;-65
2022/10/21 10:16:21;;;;;;;0.00;0.00;;;16.40;99.90;;;;;;5005017;28;20197;-65
2022/10/21 10:18:48;;;;;;;0.00;0.00;;;16.40;99.90;;;;;;5012759;28;20657;-65
2022/10/21 10:21:18;;;;;;;0.00;0.00;;;16.50;99.90;;;;;;5005348;28;20230;-65
2022/10/21 10:23:52;;;;;;;0.00;0.00;;;16.60;99.90;;;;;;4993212;28;20195;-65
2022/10/21 10:26:37;;;;;;;0.00;0.00;;;16.60;99.90;;;;;;5007164;28;20198;-65
2022/10/21 10:29:14;;;;;;;0.00;0.00;;;16.70;99.90;;;;;;5004689;28;20233;-65
2022/10/21 10:31:46;;;;;;;0.13;0.13;;;16.70;99.90;;;;;;5010852;28;20237;-65
2022/10/21 10:34:35;;;;;;;0.00;0.00;;;16.70;99.90;;;;;;5003451;28;20183;-65
2022/10/21 10:37:16;;;;;;;0.00;0.00;;;16.80;99.90;;;;;;5009014;28;20179;-65
2022/10/21 10:39:45;;;;;;;0.00;0.00;;;16.90;99.90;;;;;;5012338;28;20709;-65
2022/10/21 10:42:18;;;;;;;0.00;0.00;;;17.00;99.90;;;;;;5012394;28;20182;-65
2022/10/21 10:44:44;;;;;;;0.00;0.00;;;17.10;99.90;;;;;;5009590;28;20512;-65
2022/10/21 10:47:21;;;;;;;0.03;0.03;;;17.10;99.90;;;;;;4992794;28;20191;-65
2022/10/21 10:49:49;;;;;;;0.00;0.00;;;17.10;99.90;;;;;;4995771;28;20178;-66
2022/10/21 10:52:20;;;;;;;0.35;0.10;;;17.20;99.90;;;;;;5010448;28;20193;-65
2022/10/21 10:54:46;;;;;;;0.00;0.00;;;17.20;99.90;;;;;;5009267;28;20214;-65
2022/10/21 10:57:19;;;;;;;0.00;0.00;;;17.20;99.90;;;;;;4993965;28;20210;-65
2022/10/21 11:00:00;;;;;;;0.00;0.00;;;17.20;99.90;;;;;;5011275;28;20296;-66
2022/10/21 11:02:56;;;;;;;0.22;0.15;;;17.30;99.90;;;;;;5012171;28;20245;-66
2022/10/21 11:05:43;;;;;;;0.00;0.00;;;17.30;99.90;;;;;;4992483;28;20266;-66
2022/10/21 11:08:31;;;;;;;0.00;0.00;;;17.40;99.90;;;;;;4998960;28;20222;-66
2022/10/21 11:11:00;;;;;;;0.00;0.00;;;17.50;99.90;;;;;;5011416;28;20179;-66
2022/10/21 11:13:27;;;;;;;0.00;0.00;;;17.70;99.90;;;;;;5010327;28;20183;-66
2022/10/21 11:16:12;;;;;;;0.00;0.00;;;17.80;99.90;;;;;;5000265;28;20230;-66
2022/10/21 11:18:44;;;;;;;0.00;0.00;;;17.90;99.90;;;;;;4999094;28;20273;-66
2022/10/21 11:21:27;;;;;;;0.00;0.00;;;17.90;99.90;;;;;;5008417;28;20580;-65
2022/10/21 11:24:14;;;;;;;0.00;0.00;;;17.90;99.90;;;;;;4996202;28;20202;-65
2022/10/21 11:26:58;;;;;;;0.00;0.00;;;17.90;99.90;;;;;;4992412;28;20185;-66
2022/10/21 11:29:36;;;;;;;0.00;0.00;;;17.80;99.90;;;;;;5001270;28;20234;-66
2022/10/21 11:32:19;;;;;;;0.00;0.00;;;17.80;99.90;;;;;;4993356;28;20209;-66
2022/10/21 11:34:53;;;;;;;0.00;0.00;;;17.80;99.90;;;;;;5000743;28;20327;-66
2022/10/21 11:37:24;;;;;;;0.00;0.00;;;17.80;99.90;;;;;;4992212;28;20588;-66
2022/10/21 11:40:25;;;;;;;0.00;0.00;;;17.80;99.90;;;;;;4993301;28;20714;-66
2022/10/21 11:42:51;;;;;;;0.00;0.00;;;17.80;99.90;;;;;;4992281;28;20689;-66
2022/10/21 11:45:36;;;;;;;0.00;0.00;;;17.80;99.90;;;;;;4994344;28;20187;-65
2022/10/21 11:48:33;;;;;;;0.08;0.08;;;17.80;99.90;;;;;;4992143;28;20597;-66
2022/10/21 11:51:22;;;;;;;0.00;0.00;;;17.90;99.90;;;;;;4992172;28;20631;-65
2022/10/21 11:54:06;;;;;;;0.00;0.00;;;17.90;99.90;;;;;;4994044;28;20175;-66
2022/10/21 11:56:48;;;;;;;0.00;0.00;;;17.90;99.90;;;;;;4994556;28;20194;-66
2022/10/21 11:59:22;;;;;;;0.00;0.00;;;17.90;99.90;;;;;;4996661;28;20183;-65
2022/10/21 12:02:00;;;;;;;0.00;0.00;;;18.00;99.90;;;;;;5014499;28;20179;-66
2022/10/21 12:04:39;;;;;;;0.00;0.00;;;18.00;99.90;;;;;;5005164;28;20578;-66
2022/10/21 12:07:30;;;;;;;0.00;0.00;;;18.10;99.90;;;;;;4995715;28;20222;-66
2022/10/21 12:10:03;;;;;;;0.00;0.00;;;18.20;99.90;;;;;;5008030;28;20187;-65
2022/10/21 12:12:33;;;;;;;0.00;0.00;;;18.30;99.90;;;;;;5014983;28;20183;-66
2022/10/21 12:15:02;;;;;;;0.00;0.00;;;18.30;99.90;;;;;;5005816;28;20172;-66
2022/10/21 12:17:32;;;;;;;0.00;0.00;;;18.40;99.90;;;;;;4996532;28;20278;-66
2022/10/21 12:20:01;;;;;;;0.00;0.00;;;18.50;99.90;;;;;;4995372;28;20227;-66
2022/10/21 12:22:31;;;;;;;0.00;0.00;;;18.50;99.90;;;;;;5007669;28;20201;-66
2022/10/21 12:25:07;;;;;;;0.00;0.00;;;18.50;99.90;;;;;;5014827;28;20182;-66
2022/10/21 12:27:44;;;;;;;0.00;0.00;;;18.60;99.90;;;;;;5024418;28;20181;-66
2022/10/21 12:30:23;;;;;;;0.20;0.20;;;18.60;99.90;;;;;;5002867;28;20233;-66
2022/10/21 12:33:11;;;;;;;0.00;0.00;;;18.60;99.90;;;;;;5013666;28;20199;-66
2022/10/21 12:35:43;;;;;;;0.43;0.10;;;18.70;99.90;;;;;;5011937;28;20194;-66
2022/10/21 12:38:36;;;;;;;0.25;0.25;;;18.70;99.90;;;;;;5013054;28;20178;-65
2022/10/21 12:41:23;;;;;;;0.10;0.10;;;18.70;99.90;;;;;;5014592;28;20225;-65
2022/10/21 12:44:01;;;;;;;0.00;0.00;;;18.80;99.90;;;;;;5004096;28;20222;-66
2022/10/21 12:46:39;;;;;;;0.10;0.10;;;18.70;99.90;;;;;;4995831;28;20461;-66
2022/10/21 12:49:25;;;;;;;0.00;0.00;;;18.70;99.90;;;;;;4995965;28;20274;-66
2022/10/21 12:52:06;;;;;;;0.00;0.00;;;18.80;99.90;;;;;;4995905;28;20198;-66
2022/10/21 12:54:59;;;;;;;0.10;0.10;;;18.90;99.90;;;;;;4995721;28;20234;-66
2022/10/21 12:57:32;;;;;;;0.00;0.00;;;18.90;99.90;;;;;;4994718;28;20198;-66
2022/10/21 13:00:21;;;;;;;0.00;0.00;;;19.10;99.90;;;;;;4998489;28;20206;-66
2022/10/21 13:03:02;;;;;;;0.05;0.05;;;19.00;99.90;;;;;;5014241;28;20183;-66
2022/10/21 13:05:37;;;;;;;0.15;0.15;;;19.10;99.90;;;;;;5000993;28;20773;-67
2022/10/21 13:08:26;;;;;;;0.00;0.00;;;19.10;99.90;;;;;;5004267;28;20221;-69